Kezdőlap
METAR-TAF:

METAR-TAF

Repülőterek :

Ames, Iowa, Amerikai Egyesült Államok

földrajzi szélesség: 41-59-26N, földrajzi hosszúság: 093-37-08W, magasság: 288 m

Jelenlegi meteorológiai megfigyelések

A jelentés 59 perccel ezelõtt készült, 13:01 UTC
Kelet-délkeleti szél 11 kt
Hőmérséklet 14°C
Páratartalom 82%
Légköri nyomás 1004 hPa
Látótávolság: 16.1 km
Kevés felhő 3200 lábon
Szakadozott felhőzet 7000 lábon
Borult 11000 lábon
enyhe esõ

METAR: KAMW 161301Z AUTO 11011KT 10SM -RA FEW032 BKN070 OVC110 14/11 A2964 RMK AO2 LTG DSNT SW-N P0000 T01440106

Idő: 09:00 (14:00 UTC)


TAF: hiányzik

Meteorológiai megfigyelések és előrejelzések több, mint 4000 repülőtéren (METAR és TAF jelentéseket).

A térképen piros és sárga pontok jelzik az elérhető meteorológiai állomásokat.

Mozgassa az egeret a pont fölött, hogy megjelenjen az állomás neve.

Azután kattintson az időjárási megfigyelések és előrejelzések megtekintéséhez.

A térkép megváltoztatása: kattintson a fekete keresztel jelölt zöld gombra ráközelítéshez, a vonallal jelölt zöld gombra távolításhoz, vagy a zöld nyilakra a szomszédos térképek eléréséhez.


METAR-TAF: